Watertown, SD (57201)

12:58 PM CST on February 08, 2016 (GMT -0600)
East side of Watertown, SD | | Change Station
CLOSE
Current Station
Personal Weather Station
Location: Watertown, SD
Elevation: 1732 ft
Nearby Weather Stations
Active Advisory: Winter Weather Advisory

Elev 1732 ft 44.89 °N, 97.09 °W | Updated 9 minutes ago

Light Snow
Light Snow
21.7 °F
Feels Like 8 °F
N
16.1
Wind Variable Wind from NNW

Today
High -- | Low -- °F
--% Chance of Precip.
Yesterday
High -- | Low -- °F
Precip. -- in
Pressure 30.17 in
Visibility 5.0 miles
Clouds Overcast 2500 ft
Windchill 8 °F
Dew Point 16 °F
Humidity 80%
Rainfall 0.00 in
Snow Depth Not available.
7:39 AM 5:46 PM
New Moon, 0% visible
METAR KATY 081853Z AUTO 33024G33KT 5SM -SN OVC025 M07/M12 A3009 RMK AO2 PK WND 34033/1844 SLP217 P0000 T10671117
Pressure 30.17 in
Visibility 5.0 miles
Clouds Overcast 2500 ft
Windchill 8 °F
Dew Point 16 °F
Humidity 80%
Rainfall 0.00 in
Snow Depth Not available.
7:39 AM 5:46 PM
New Moon, 0% visible
METAR KATY 081853Z AUTO 33024G33KT 5SM -SN OVC025 M07/M12 A3009 RMK AO2 PK WND 34033/1844 SLP217 P0000 T10671117

10-Day Weather Forecast

Almanac

Astronomy

Feb. 08, 2016 Rise Set
Actual Time
Civil Twilight
Nautical Twilight
Astronomical Twilight
Moon
Length of Visible Light
Length of Day
Tomorrow will be .
, % of the Moon is Illuminated

Today's Extremes

State Highs State Lows

Community

WunderPhotos

Upload Photos

1,891,481 photos uploaded!

WunderBlog® & News

Nearby

Air Quality

  Air Quality AQ Index Pollutant
Not available.

Snow Depth

Station Depth Elevation

Earthquake Activity

City Distance Mag. Time & Date
Minimum magnitude displayed is 2.5.

Coastal Water Temperatures

Place Temperature

Stations

Nearby Weather Stations

Station Location Temp. Windchill Dew Point Humidity Wind Precip. Elev Updated Type
                   

Watches & Warnings

Winter Weather Advisory
Issued: 9:18 AM CST Feb. 8, 2016 – National Weather Service

... Winter Weather Advisory now in effect until 6 PM CST this
evening...

The Winter Weather Advisory is now in effect until 6 PM CST this
evening.

* Expect areas of blowing snow to continue... diminishing around 6
PM. Visibility may drop below a half mile at times during snow
showers.

* Light additional accumulations expected.

* Travel will likely be impacted by occasional low visibility.

Precautionary/preparedness actions...

A Winter Weather Advisory for blowing snow means that
visibilities will be limited due to strong winds blowing snow
around. Use caution when traveling... especially in open areas.
The latest Road conditions can be obtained by calling 5 1 1.

Tdk